createdAt,value
2022-09-15T00:05:02.695Z,59.49
2022-09-15T00:10:07.716Z,65.04
2022-09-15T00:15:14.888Z,63.37
2022-09-15T00:20:19.983Z,60.30
2022-09-15T00:25:22.814Z,57.61
2022-09-15T00:30:25.807Z,59.74
2022-09-15T00:35:28.721Z,65.41
2022-09-15T00:40:31.648Z,63.38
2022-09-15T00:45:34.573Z,60.17
2022-09-15T00:50:39.760Z,57.63
2022-09-15T00:55:47.480Z,60.06
2022-09-15T01:01:09.312Z,65.68
2022-09-15T01:06:14.404Z,63.68
2022-09-15T01:11:17.889Z,60.98
2022-09-15T01:22:20.024Z,59.54
2022-09-15T01:27:42.692Z,66.28
2022-09-15T01:33:04.344Z,64.83
2022-09-15T01:38:32.455Z,62.41
2022-09-15T01:43:42.938Z,60.21
2022-09-15T01:48:46.960Z,57.50
2022-09-15T01:53:52.852Z,57.70
2022-09-15T01:58:55.751Z,65.30
2022-09-15T02:04:09.198Z,64.35
2022-09-15T02:09:27.156Z,61.59
2022-09-15T02:14:56.129Z,58.64
2022-09-15T02:20:16.790Z,60.42
2022-09-15T02:25:30.760Z,66.80
2022-09-15T02:30:37.993Z,64.36
2022-09-15T02:35:42.373Z,62.33
2022-09-15T02:40:45.404Z,61.16
2022-09-15T02:45:49.842Z,58.77
2022-09-15T02:50:52.687Z,59.48
2022-09-15T02:55:55.555Z,65.25
2022-09-15T03:00:58.500Z,64.88
2022-09-15T03:06:17.027Z,62.88
2022-09-15T03:11:23.410Z,61.69
2022-09-15T03:16:27.957Z,61.00
2022-09-15T03:21:30.959Z,58.73
2022-09-15T03:26:33.861Z,61.46
2022-09-15T03:31:36.877Z,67.12
2022-09-15T03:36:39.880Z,65.11
2022-09-15T03:41:42.778Z,63.75
2022-09-15T03:46:45.997Z,62.15
2022-09-15T03:51:48.893Z,61.80
2022-09-15T03:56:52.309Z,61.44
2022-09-15T04:01:55.188Z,61.53
2022-09-15T04:06:58.220Z,61.05
2022-09-15T04:12:01.126Z,59.56
2022-09-15T04:17:04.230Z,60.20
2022-09-15T04:22:07.135Z,65.77
2022-09-15T04:27:10.243Z,64.61
2022-09-15T04:32:13.054Z,64.72
2022-09-15T04:37:15.952Z,63.97
2022-09-15T04:42:21.113Z,63.41
2022-09-15T04:47:24.008Z,63.40
2022-09-15T04:52:26.914Z,63.15
2022-09-15T04:57:29.821Z,62.31
2022-09-15T05:02:33.542Z,61.54
2022-09-15T05:07:36.548Z,60.65
2022-09-15T05:12:39.457Z,60.80
2022-09-15T05:17:42.367Z,60.49
2022-09-15T05:22:46.085Z,60.45
2022-09-15T05:27:48.881Z,60.39
2022-09-15T05:32:53.597Z,59.79
2022-09-15T05:37:57.247Z,59.81
2022-09-15T05:43:00.151Z,59.64
2022-09-15T05:48:04.143Z,62.91
2022-09-15T05:53:07.676Z,62.57
2022-09-15T05:58:11.123Z,60.63
2022-09-15T06:03:15.556Z,56.45
2022-09-15T06:08:18.462Z,52.70
2022-09-15T06:13:21.362Z,48.79
2022-09-15T06:18:24.265Z,46.51
2022-09-15T06:23:27.178Z,43.60
2022-09-15T06:28:29.955Z,41.11
2022-09-15T06:33:32.875Z,39.23
2022-09-15T06:38:35.678Z,38.27
2022-09-15T06:43:39.317Z,38.11
2022-09-15T06:48:45.249Z,36.26
2022-09-15T06:53:51.681Z,35.03
2022-09-15T06:58:58.032Z,36.05
2022-09-15T07:04:09.989Z,35.59
2022-09-15T07:09:13.580Z,34.49
2022-09-15T07:14:16.381Z,31.96
2022-09-15T07:19:19.594Z,31.82
2022-09-15T07:24:22.395Z,31.94
2022-09-15T07:29:25.402Z,32.58
2022-09-15T07:34:29.635Z,32.70
2022-09-15T07:39:33.364Z,32.37
2022-09-15T07:44:36.470Z,31.74
2022-09-15T07:49:39.476Z,31.67
2022-09-15T07:54:42.381Z,30.99
2022-09-15T07:59:45.291Z,31.60
2022-09-15T08:04:49.007Z,31.63
2022-09-15T08:09:52.012Z,31.49
2022-09-15T08:14:54.813Z,30.37
2022-09-15T08:19:57.613Z,31.08
2022-09-15T08:25:00.620Z,30.88
2022-09-15T08:30:05.039Z,30.44
2022-09-15T08:35:11.551Z,32.07
2022-09-15T08:40:22.486Z,35.44
2022-09-15T08:45:34.047Z,38.14
2022-09-15T08:50:47.805Z,40.48
2022-09-15T08:55:54.271Z,42.29
2022-09-15T09:01:29.722Z,43.74
2022-09-15T09:06:51.508Z,45.32
2022-09-15T09:12:15.819Z,46.34
2022-09-15T09:17:57.936Z,46.22
2022-09-15T09:23:04.118Z,45.68
2022-09-15T09:28:20.435Z,45.27
2022-09-15T09:33:47.935Z,46.39
2022-09-15T09:38:51.438Z,46.92
2022-09-15T09:43:56.671Z,46.99
2022-09-15T09:49:10.802Z,46.55
2022-09-15T09:54:23.083Z,47.26
2022-09-15T09:59:34.694Z,49.18
2022-09-15T10:04:43.203Z,49.66
2022-09-15T10:09:58.423Z,50.18
2022-09-15T10:15:07.773Z,51.73
2022-09-15T10:20:35.721Z,52.58
2022-09-15T10:31:04.018Z,52.92
2022-09-15T10:36:24.518Z,53.93
2022-09-15T10:41:35.205Z,54.78
2022-09-15T10:46:59.583Z,55.42
2022-09-15T10:52:18.299Z,56.34
2022-09-15T10:58:02.457Z,57.16
2022-09-15T11:03:26.253Z,58.05
2022-09-15T11:08:47.895Z,57.86
2022-09-15T11:14:07.491Z,55.80
2022-09-15T11:19:32.000Z,55.41
2022-09-15T11:24:48.524Z,55.86
2022-09-15T11:30:09.558Z,56.93
2022-09-15T11:35:35.407Z,56.58
2022-09-15T11:41:03.490Z,56.11
2022-09-15T11:46:11.975Z,55.75
2022-09-15T11:51:20.672Z,55.78
2022-09-15T11:56:37.097Z,55.14
2022-09-15T12:01:46.085Z,54.86
2022-09-15T12:06:55.436Z,54.32
2022-09-15T12:12:06.076Z,53.88
2022-09-15T12:17:18.684Z,52.83
2022-09-15T12:23:04.590Z,52.44
2022-09-15T12:28:22.574Z,52.90
2022-09-15T12:33:56.894Z,52.03
2022-09-15T12:39:01.011Z,51.74
2022-09-15T12:44:21.977Z,50.75
2022-09-15T12:49:35.630Z,50.01
2022-09-15T12:54:42.786Z,48.79
2022-09-15T12:59:45.944Z,48.95
2022-09-15T13:04:54.495Z,49.03
2022-09-15T13:10:16.857Z,48.80
2022-09-15T13:15:22.513Z,48.31
2022-09-15T13:20:33.608Z,48.29
2022-09-15T13:25:40.782Z,48.35
2022-09-15T13:31:14.796Z,48.32
2022-09-15T13:42:32.644Z,48.74
2022-09-15T13:47:47.027Z,49.30
2022-09-15T13:53:11.431Z,49.18
2022-09-15T14:03:45.657Z,49.59
2022-09-15T14:08:56.484Z,49.48
2022-09-15T14:14:03.416Z,49.31
2022-09-15T14:19:40.075Z,49.65
2022-09-15T14:24:43.279Z,50.01
2022-09-15T14:29:50.341Z,52.05
2022-09-15T14:34:55.349Z,53.60
2022-09-15T14:40:00.656Z,54.96
2022-09-15T14:50:42.118Z,57.45
2022-09-15T14:55:57.239Z,58.20
2022-09-15T15:01:30.450Z,58.89
2022-09-15T15:06:51.648Z,59.43
2022-09-15T15:12:00.745Z,59.46
2022-09-15T15:17:08.689Z,59.28
2022-09-15T15:22:14.439Z,59.14
2022-09-15T15:27:32.591Z,59.61
2022-09-15T15:32:35.596Z,59.78
2022-09-15T15:37:38.501Z,59.88
2022-09-15T15:43:02.347Z,59.88
2022-09-15T15:48:06.718Z,59.78
2022-09-15T15:53:09.656Z,59.53
2022-09-15T15:58:13.671Z,59.45
2022-09-15T16:03:18.086Z,59.05
2022-09-15T16:08:24.463Z,58.88
2022-09-15T16:13:28.593Z,58.76
2022-09-15T16:18:31.534Z,58.73
2022-09-15T16:23:34.541Z,58.92
2022-09-15T16:28:37.956Z,59.08
2022-09-15T16:33:42.606Z,59.20
2022-09-15T16:38:45.790Z,59.47
2022-09-15T16:43:49.397Z,59.52
2022-09-15T16:48:52.256Z,59.56
2022-09-15T16:53:55.149Z,59.50
2022-09-15T16:59:00.416Z,59.55
2022-09-15T17:04:09.204Z,59.76
2022-09-15T17:09:12.261Z,60.00
2022-09-15T17:14:18.721Z,60.56
2022-09-15T17:19:24.191Z,61.42
2022-09-15T17:24:27.410Z,61.78
2022-09-15T17:29:30.245Z,61.70
2022-09-15T17:34:33.117Z,61.55
2022-09-15T17:39:36.231Z,61.31
2022-09-15T17:44:39.231Z,61.16
2022-09-15T17:49:42.136Z,61.48
2022-09-15T17:54:45.039Z,64.65
2022-09-15T17:59:47.955Z,60.92
2022-09-15T18:04:51.047Z,58.90
2022-09-15T18:09:55.180Z,59.68
2022-09-15T18:14:58.290Z,61.02
2022-09-15T18:20:01.603Z,65.22
2022-09-15T18:25:05.176Z,65.03
2022-09-15T18:30:09.114Z,58.37
2022-09-15T18:35:18.324Z,59.92
2022-09-15T18:40:22.459Z,61.03
2022-09-15T18:45:26.296Z,64.09
2022-09-15T18:50:29.257Z,65.10
2022-09-15T18:55:32.762Z,63.72
2022-09-15T19:00:36.795Z,61.95
2022-09-15T19:05:40.235Z,58.02
2022-09-15T19:10:44.481Z,59.60
2022-09-15T19:15:49.229Z,61.47
2022-09-15T19:20:54.373Z,65.30
2022-09-15T19:25:57.276Z,62.43
2022-09-15T19:31:04.061Z,61.62
2022-09-15T19:36:27.296Z,57.90
2022-09-15T19:41:32.246Z,60.35
2022-09-15T19:46:35.116Z,63.94
2022-09-15T19:51:38.459Z,63.10
2022-09-15T19:56:41.323Z,62.33
2022-09-15T20:01:44.642Z,60.76
2022-09-15T20:06:48.051Z,59.05
2022-09-15T20:11:51.062Z,63.30
2022-09-15T20:16:56.214Z,65.65
2022-09-15T20:22:01.987Z,61.32
2022-09-15T20:27:05.107Z,60.27
2022-09-15T20:32:08.105Z,64.14
2022-09-15T20:37:11.937Z,63.15
2022-09-15T20:42:14.938Z,62.25
2022-09-15T20:47:17.954Z,62.01
2022-09-15T20:52:20.845Z,59.42
2022-09-15T20:57:24.064Z,63.70
2022-09-15T21:02:27.081Z,62.19
2022-09-15T21:07:30.071Z,59.85
2022-09-15T21:12:34.202Z,64.55
2022-09-15T21:17:37.220Z,64.48
2022-09-15T21:22:41.241Z,64.65
2022-09-15T21:27:46.409Z,59.51
2022-09-15T21:32:49.301Z,60.93
2022-09-15T21:37:52.105Z,65.20
2022-09-15T21:42:55.127Z,65.11
2022-09-15T21:47:58.014Z,62.92
2022-09-15T21:53:00.813Z,62.27
2022-09-15T21:58:03.717Z,59.68
2022-09-15T22:03:07.115Z,64.76
2022-09-15T22:08:11.369Z,64.87
2022-09-15T22:13:14.273Z,63.00
2022-09-15T22:18:17.986Z,63.15
2022-09-15T22:23:21.106Z,61.29
2022-09-15T22:28:23.996Z,60.60
2022-09-15T22:33:27.122Z,64.69
2022-09-15T22:38:30.736Z,64.68
2022-09-15T22:43:33.846Z,62.02
2022-09-15T22:48:41.135Z,62.74
2022-09-15T22:53:46.347Z,60.29
2022-09-15T22:58:50.545Z,64.17
2022-09-15T23:03:59.505Z,63.46
2022-09-15T23:09:06.951Z,63.26
2022-09-15T23:14:15.447Z,62.15
2022-09-15T23:19:18.340Z,60.28
2022-09-15T23:24:21.249Z,59.64
2022-09-15T23:29:26.402Z,63.71
2022-09-15T23:34:29.407Z,63.42
2022-09-15T23:39:32.316Z,62.25
2022-09-15T23:44:35.219Z,59.53
2022-09-15T23:49:38.120Z,63.08
2022-09-15T23:54:40.923Z,64.70
2022-09-15T23:59:44.041Z,63.45
